createdAt,value
2023-05-02T00:05:10.490Z,13.90
2023-05-02T00:15:15.508Z,13.70
2023-05-02T00:25:19.246Z,13.60
2023-05-02T00:35:24.158Z,13.50
2023-05-02T00:45:28.010Z,13.60
2023-05-02T00:55:34.718Z,13.60
2023-05-02T01:05:51.023Z,13.60
2023-05-02T01:15:57.770Z,13.40
2023-05-02T01:26:17.925Z,13.30
2023-05-02T01:36:27.027Z,13.00
2023-05-02T01:46:35.612Z,13.00
2023-05-02T01:56:41.713Z,13.00
2023-05-02T02:06:49.871Z,12.90
2023-05-02T02:16:57.677Z,12.90
2023-05-02T02:27:01.233Z,12.80
2023-05-02T02:37:12.624Z,12.80
2023-05-02T02:47:25.218Z,12.60
2023-05-02T02:57:40.398Z,12.50
2023-05-02T03:07:43.983Z,12.30
2023-05-02T03:17:48.886Z,12.20
2023-05-02T03:27:52.566Z,12.20
2023-05-02T03:37:57.518Z,12.00
2023-05-02T03:48:01.204Z,12.20
2023-05-02T03:58:06.229Z,12.20
2023-05-02T04:08:09.955Z,12.20
2023-05-02T04:18:15.035Z,12.20
2023-05-02T04:28:18.641Z,12.20
2023-05-02T04:38:23.783Z,12.00
2023-05-02T04:48:27.560Z,11.90
2023-05-02T04:58:35.103Z,11.90
2023-05-02T05:08:38.932Z,12.10
2023-05-02T05:18:44.099Z,12.20
2023-05-02T05:28:48.014Z,12.30
2023-05-02T05:38:53.653Z,12.30
2023-05-02T05:48:57.396Z,12.30
2023-05-02T05:59:02.460Z,12.40
2023-05-02T06:09:06.140Z,12.40
2023-05-02T06:19:11.532Z,12.40
2023-05-02T06:29:15.153Z,12.50
2023-05-02T06:39:20.131Z,12.40
2023-05-02T06:49:23.838Z,12.70
2023-05-02T06:59:28.939Z,13.40
2023-05-02T07:09:32.569Z,13.80
2023-05-02T07:19:37.501Z,13.70
2023-05-02T07:29:42.442Z,13.90
2023-05-02T07:39:47.614Z,14.20
2023-05-02T07:49:52.575Z,14.30
2023-05-02T07:59:58.135Z,14.10
2023-05-02T08:10:02.329Z,13.70
2023-05-02T08:20:09.581Z,14.00
2023-05-02T08:30:14.608Z,14.00
2023-05-02T08:40:30.423Z,14.10
2023-05-02T08:50:45.223Z,14.10
2023-05-02T09:00:52.058Z,14.00
2023-05-02T09:10:56.058Z,14.20
2023-05-02T09:21:02.668Z,14.10
2023-05-02T09:31:09.554Z,14.40
2023-05-02T09:41:15.080Z,14.90
2023-05-02T09:51:20.119Z,15.40
2023-05-02T10:01:25.185Z,15.20
2023-05-02T10:11:28.910Z,16.00
2023-05-02T10:21:37.130Z,16.30
2023-05-02T10:31:44.281Z,16.60
2023-05-02T10:41:50.019Z,16.30
2023-05-02T10:51:54.105Z,15.80
2023-05-02T11:01:59.579Z,15.90
2023-05-02T11:12:05.721Z,16.70
2023-05-02T11:22:34.255Z,17.50
2023-05-02T11:33:19.796Z,17.20
2023-05-02T11:43:31.930Z,17.30
2023-05-02T11:53:42.601Z,16.80
2023-05-02T12:03:49.411Z,17.20
2023-05-02T12:13:53.432Z,17.70
2023-05-02T12:23:58.872Z,17.70
2023-05-02T12:34:03.342Z,17.40
2023-05-02T12:44:08.386Z,17.20
2023-05-02T12:54:21.744Z,17.90
2023-05-02T13:04:36.632Z,18.00
2023-05-02T13:14:40.452Z,17.50
2023-05-02T13:24:46.959Z,16.40
2023-05-02T13:34:50.636Z,16.20
2023-05-02T13:44:55.649Z,16.60
2023-05-02T13:54:59.334Z,17.00
2023-05-02T14:05:04.461Z,17.90
2023-05-02T14:15:10.216Z,17.40
2023-05-02T14:25:15.620Z,16.60
2023-05-02T14:35:19.323Z,16.20
2023-05-02T14:45:24.580Z,16.50
2023-05-02T14:55:28.385Z,16.80
2023-05-02T15:05:33.893Z,17.10
2023-05-02T15:15:37.736Z,17.40
2023-05-02T15:25:44.514Z,17.40
2023-05-02T15:35:56.430Z,17.60
2023-05-02T15:46:01.834Z,17.60
2023-05-02T15:56:08.539Z,17.90
2023-05-02T16:06:15.859Z,17.40
2023-05-02T16:16:19.719Z,17.30
2023-05-02T16:26:24.769Z,17.40
2023-05-02T16:36:28.998Z,17.70
2023-05-02T16:46:34.214Z,17.20
2023-05-02T16:56:38.048Z,17.40
2023-05-02T17:06:44.049Z,17.70
2023-05-02T17:16:47.903Z,17.40
2023-05-02T17:26:53.868Z,17.70
2023-05-02T17:36:57.536Z,17.50
2023-05-02T17:47:02.969Z,16.90
2023-05-02T17:57:06.656Z,16.90
2023-05-02T18:07:11.835Z,16.20
2023-05-02T18:17:15.713Z,15.10
2023-05-02T18:27:21.228Z,14.00
2023-05-02T18:37:31.219Z,13.40
2023-05-02T18:47:36.833Z,13.10
2023-05-02T18:57:40.617Z,12.70
2023-05-02T19:07:45.888Z,12.40
2023-05-02T19:17:51.093Z,12.10
2023-05-02T19:27:56.296Z,11.90
2023-05-02T19:37:59.926Z,11.60
2023-05-02T19:48:05.735Z,11.40
2023-05-02T19:58:09.565Z,11.20
2023-05-02T20:08:14.661Z,11.00
2023-05-02T20:18:18.817Z,10.90
2023-05-02T20:28:24.900Z,10.60
2023-05-02T20:38:29.914Z,10.40
2023-05-02T20:48:35.019Z,10.20
2023-05-02T20:58:39.210Z,10.00
2023-05-02T21:08:44.981Z,9.90
2023-05-02T21:18:49.377Z,9.70
2023-05-02T21:28:55.492Z,9.60
2023-05-02T21:39:02.765Z,9.30
2023-05-02T21:49:10.472Z,9.20
2023-05-02T21:59:14.278Z,9.00
2023-05-02T22:09:19.306Z,8.90
2023-05-02T22:19:23.026Z,8.60
2023-05-02T22:29:28.029Z,8.60
2023-05-02T22:39:31.723Z,8.20
2023-05-02T22:49:36.723Z,8.10
2023-05-02T22:59:40.464Z,8.00
2023-05-02T23:09:45.565Z,7.80
2023-05-02T23:19:50.089Z,7.60
2023-05-02T23:29:55.193Z,7.60
2023-05-02T23:40:00.395Z,7.50
2023-05-02T23:50:06.208Z,7.40
